sensor_id;sensor_type;location;lat;lon;timestamp;P1;durP1;ratioP1;P2;durP2;ratioP2
34725;SDS011;20951;50.818;4.344;2023-08-31T00:00:13;7.03;;;3.25;;
34725;SDS011;20951;50.818;4.344;2023-08-31T00:02:40;4.47;;;2.88;;
34725;SDS011;20951;50.818;4.344;2023-08-31T00:05:06;4.53;;;2.80;;
34725;SDS011;20951;50.818;4.344;2023-08-31T00:07:32;7.53;;;3.10;;
34725;SDS011;20951;50.818;4.344;2023-08-31T00:09:58;4.88;;;3.22;;
34725;SDS011;20951;50.818;4.344;2023-08-31T00:12:24;6.72;;;3.53;;
34725;SDS011;20951;50.818;4.344;2023-08-31T00:14:52;5.68;;;3.40;;
34725;SDS011;20951;50.818;4.344;2023-08-31T00:17:18;5.82;;;3.25;;
34725;SDS011;20951;50.818;4.344;2023-08-31T00:19:43;7.20;;;3.55;;
34725;SDS011;20951;50.818;4.344;2023-08-31T00:22:09;6.15;;;3.67;;
34725;SDS011;20951;50.818;4.344;2023-08-31T00:24:35;5.63;;;3.40;;
34725;SDS011;20951;50.818;4.344;2023-08-31T00:27:02;7.68;;;3.80;;
34725;SDS011;20951;50.818;4.344;2023-08-31T00:29:29;6.45;;;3.70;;
34725;SDS011;20951;50.818;4.344;2023-08-31T00:31:55;6.80;;;4.15;;
34725;SDS011;20951;50.818;4.344;2023-08-31T00:34:21;6.00;;;4.03;;
34725;SDS011;20951;50.818;4.344;2023-08-31T00:36:47;6.57;;;4.15;;
34725;SDS011;20951;50.818;4.344;2023-08-31T00:39:13;7.30;;;3.78;;
34725;SDS011;20951;50.818;4.344;2023-08-31T00:41:39;8.10;;;4.07;;
34725;SDS011;20951;50.818;4.344;2023-08-31T00:44:05;6.95;;;4.00;;
34725;SDS011;20951;50.818;4.344;2023-08-31T00:46:32;7.97;;;4.43;;
34725;SDS011;20951;50.818;4.344;2023-08-31T00:48:59;7.78;;;4.20;;
34725;SDS011;20951;50.818;4.344;2023-08-31T00:51:25;8.52;;;4.30;;
34725;SDS011;20951;50.818;4.344;2023-08-31T00:53:51;5.93;;;4.38;;
34725;SDS011;20951;50.818;4.344;2023-08-31T00:56:21;5.97;;;3.88;;
34725;SDS011;20951;50.818;4.344;2023-08-31T00:58:47;7.30;;;4.60;;
34725;SDS011;20951;50.818;4.344;2023-08-31T01:04:34;7.43;;;4.38;;
34725;SDS011;20951;50.818;4.344;2023-08-31T01:10:18;7.35;;;4.68;;
34725;SDS011;20951;50.818;4.344;2023-08-31T01:13:14;6.57;;;4.15;;
34725;SDS011;20951;50.818;4.344;2023-08-31T01:15:45;8.27;;;4.18;;
34725;SDS011;20951;50.818;4.344;2023-08-31T01:18:16;6.85;;;4.07;;
34725;SDS011;20951;50.818;4.344;2023-08-31T01:23:49;8.93;;;4.38;;
34725;SDS011;20951;50.818;4.344;2023-08-31T01:26:19;7.53;;;4.70;;
34725;SDS011;20951;50.818;4.344;2023-08-31T01:28:47;9.05;;;4.43;;
34725;SDS011;20951;50.818;4.344;2023-08-31T01:31:13;9.50;;;4.85;;
34725;SDS011;20951;50.818;4.344;2023-08-31T01:33:40;8.95;;;4.90;;
34725;SDS011;20951;50.818;4.344;2023-08-31T01:36:08;9.77;;;4.45;;
34725;SDS011;20951;50.818;4.344;2023-08-31T01:38:50;7.40;;;4.30;;
34725;SDS011;20951;50.818;4.344;2023-08-31T01:41:20;7.28;;;4.80;;
34725;SDS011;20951;50.818;4.344;2023-08-31T01:43:48;8.02;;;4.53;;
34725;SDS011;20951;50.818;4.344;2023-08-31T01:46:17;9.48;;;5.22;;
34725;SDS011;20951;50.818;4.344;2023-08-31T01:48:44;7.75;;;4.38;;
34725;SDS011;20951;50.818;4.344;2023-08-31T01:51:10;7.93;;;4.43;;
34725;SDS011;20951;50.818;4.344;2023-08-31T01:53:36;7.22;;;4.40;;
34725;SDS011;20951;50.818;4.344;2023-08-31T01:56:02;8.27;;;4.68;;
34725;SDS011;20951;50.818;4.344;2023-08-31T01:58:28;9.45;;;4.53;;
34725;SDS011;20951;50.818;4.344;2023-08-31T02:00:53;7.90;;;4.47;;
34725;SDS011;20951;50.818;4.344;2023-08-31T02:03:19;7.68;;;4.85;;
34725;SDS011;20951;50.818;4.344;2023-08-31T02:05:45;8.65;;;4.60;;
34725;SDS011;20951;50.818;4.344;2023-08-31T02:08:11;9.13;;;4.78;;
34725;SDS011;20951;50.818;4.344;2023-08-31T02:10:36;9.88;;;4.50;;
34725;SDS011;20951;50.818;4.344;2023-08-31T02:13:02;7.97;;;4.30;;
34725;SDS011;20951;50.818;4.344;2023-08-31T02:15:28;8.10;;;4.05;;
34725;SDS011;20951;50.818;4.344;2023-08-31T02:17:54;10.70;;;5.10;;
34725;SDS011;20951;50.818;4.344;2023-08-31T02:20:20;8.50;;;4.60;;
34725;SDS011;20951;50.818;4.344;2023-08-31T02:22:46;9.43;;;4.65;;
34725;SDS011;20951;50.818;4.344;2023-08-31T02:25:12;8.23;;;4.68;;
34725;SDS011;20951;50.818;4.344;2023-08-31T02:27:38;8.63;;;4.60;;
34725;SDS011;20951;50.818;4.344;2023-08-31T02:30:05;10.00;;;4.63;;
34725;SDS011;20951;50.818;4.344;2023-08-31T02:32:31;8.50;;;4.40;;
34725;SDS011;20951;50.818;4.344;2023-08-31T02:34:56;8.75;;;4.65;;
34725;SDS011;20951;50.818;4.344;2023-08-31T02:37:22;7.15;;;4.43;;
34725;SDS011;20951;50.818;4.344;2023-08-31T02:39:48;7.30;;;4.45;;
34725;SDS011;20951;50.818;4.344;2023-08-31T02:42:14;9.32;;;4.75;;
34725;SDS011;20951;50.818;4.344;2023-08-31T02:44:40;10.60;;;4.80;;
34725;SDS011;20951;50.818;4.344;2023-08-31T02:47:05;8.40;;;4.93;;
34725;SDS011;20951;50.818;4.344;2023-08-31T02:49:31;10.05;;;4.97;;
34725;SDS011;20951;50.818;4.344;2023-08-31T02:51:57;11.80;;;5.55;;
34725;SDS011;20951;50.818;4.344;2023-08-31T02:54:23;9.60;;;5.53;;
34725;SDS011;20951;50.818;4.344;2023-08-31T02:56:48;9.38;;;5.30;;
34725;SDS011;20951;50.818;4.344;2023-08-31T02:59:15;10.27;;;5.53;;
34725;SDS011;20951;50.818;4.344;2023-08-31T03:01:42;10.45;;;5.72;;
34725;SDS011;20951;50.818;4.344;2023-08-31T03:04:11;10.38;;;5.53;;
34725;SDS011;20951;50.818;4.344;2023-08-31T03:06:37;12.65;;;5.43;;
34725;SDS011;20951;50.818;4.344;2023-08-31T03:09:03;10.55;;;5.43;;
34725;SDS011;20951;50.818;4.344;2023-08-31T03:11:30;12.20;;;5.25;;
34725;SDS011;20951;50.818;4.344;2023-08-31T03:13:56;12.07;;;5.47;;
34725;SDS011;20951;50.818;4.344;2023-08-31T03:16:21;11.00;;;5.80;;
34725;SDS011;20951;50.818;4.344;2023-08-31T03:18:47;11.90;;;6.18;;
34725;SDS011;20951;50.818;4.344;2023-08-31T03:21:13;9.32;;;5.55;;
34725;SDS011;20951;50.818;4.344;2023-08-31T03:23:39;10.63;;;5.65;;
34725;SDS011;20951;50.818;4.344;2023-08-31T03:26:08;13.07;;;5.60;;
34725;SDS011;20951;50.818;4.344;2023-08-31T03:28:34;11.07;;;5.30;;
34725;SDS011;20951;50.818;4.344;2023-08-31T03:31:00;11.65;;;5.13;;
34725;SDS011;20951;50.818;4.344;2023-08-31T03:33:26;8.38;;;5.05;;
34725;SDS011;20951;50.818;4.344;2023-08-31T03:35:54;9.75;;;4.82;;
34725;SDS011;20951;50.818;4.344;2023-08-31T03:38:24;10.52;;;5.00;;
34725;SDS011;20951;50.818;4.344;2023-08-31T03:40:54;8.50;;;4.88;;
34725;SDS011;20951;50.818;4.344;2023-08-31T03:43:22;11.30;;;5.00;;
34725;SDS011;20951;50.818;4.344;2023-08-31T03:45:49;9.13;;;5.28;;
34725;SDS011;20951;50.818;4.344;2023-08-31T03:48:20;8.38;;;4.95;;
34725;SDS011;20951;50.818;4.344;2023-08-31T03:50:48;8.90;;;5.25;;
34725;SDS011;20951;50.818;4.344;2023-08-31T03:53:16;7.13;;;4.60;;
34725;SDS011;20951;50.818;4.344;2023-08-31T03:55:41;8.70;;;5.15;;
34725;SDS011;20951;50.818;4.344;2023-08-31T03:58:07;8.13;;;4.68;;
34725;SDS011;20951;50.818;4.344;2023-08-31T04:00:33;7.97;;;4.72;;
34725;SDS011;20951;50.818;4.344;2023-08-31T04:02:59;10.75;;;5.20;;
34725;SDS011;20951;50.818;4.344;2023-08-31T04:05:24;8.73;;;4.90;;
34725;SDS011;20951;50.818;4.344;2023-08-31T04:07:51;11.27;;;4.70;;
34725;SDS011;20951;50.818;4.344;2023-08-31T04:10:16;7.68;;;4.82;;
34725;SDS011;20951;50.818;4.344;2023-08-31T04:12:44;10.13;;;5.30;;
34725;SDS011;20951;50.818;4.344;2023-08-31T04:15:09;8.77;;;4.60;;
34725;SDS011;20951;50.818;4.344;2023-08-31T04:17:36;9.00;;;4.70;;
34725;SDS011;20951;50.818;4.344;2023-08-31T04:20:02;10.82;;;5.07;;
34725;SDS011;20951;50.818;4.344;2023-08-31T04:22:30;8.55;;;4.43;;
34725;SDS011;20951;50.818;4.344;2023-08-31T04:24:56;11.05;;;5.05;;
34725;SDS011;20951;50.818;4.344;2023-08-31T04:27:22;6.70;;;4.55;;
34725;SDS011;20951;50.818;4.344;2023-08-31T04:29:48;9.30;;;5.10;;
34725;SDS011;20951;50.818;4.344;2023-08-31T04:32:13;12.10;;;4.97;;
34725;SDS011;20951;50.818;4.344;2023-08-31T04:34:40;7.82;;;4.88;;
34725;SDS011;20951;50.818;4.344;2023-08-31T04:37:05;9.50;;;4.53;;
34725;SDS011;20951;50.818;4.344;2023-08-31T04:39:31;9.07;;;5.20;;
34725;SDS011;20951;50.818;4.344;2023-08-31T04:41:57;11.38;;;4.57;;
34725;SDS011;20951;50.818;4.344;2023-08-31T04:44:22;8.55;;;5.03;;
34725;SDS011;20951;50.818;4.344;2023-08-31T04:46:48;10.00;;;4.85;;
34725;SDS011;20951;50.818;4.344;2023-08-31T04:49:14;6.75;;;5.22;;
34725;SDS011;20951;50.818;4.344;2023-08-31T04:51:40;9.23;;;5.15;;
34725;SDS011;20951;50.818;4.344;2023-08-31T04:54:06;10.68;;;4.72;;
34725;SDS011;20951;50.818;4.344;2023-08-31T04:56:33;11.80;;;5.07;;
34725;SDS011;20951;50.818;4.344;2023-08-31T04:58:59;10.15;;;5.03;;
34725;SDS011;20951;50.818;4.344;2023-08-31T05:01:25;9.75;;;4.97;;
34725;SDS011;20951;50.818;4.344;2023-08-31T05:03:51;9.48;;;5.28;;
34725;SDS011;20951;50.818;4.344;2023-08-31T05:06:17;7.57;;;5.18;;
34725;SDS011;20951;50.818;4.344;2023-08-31T05:08:43;10.75;;;4.70;;
34725;SDS011;20951;50.818;4.344;2023-08-31T05:11:08;10.55;;;5.03;;
34725;SDS011;20951;50.818;4.344;2023-08-31T05:13:34;11.02;;;5.40;;
34725;SDS011;20951;50.818;4.344;2023-08-31T05:16:00;9.25;;;5.47;;
34725;SDS011;20951;50.818;4.344;2023-08-31T05:18:27;9.93;;;5.32;;
34725;SDS011;20951;50.818;4.344;2023-08-31T05:20:53;7.88;;;5.03;;
34725;SDS011;20951;50.818;4.344;2023-08-31T05:23:19;8.15;;;5.30;;
34725;SDS011;20951;50.818;4.344;2023-08-31T05:25:45;13.57;;;5.72;;
34725;SDS011;20951;50.818;4.344;2023-08-31T05:28:11;16.10;;;6.05;;
34725;SDS011;20951;50.818;4.344;2023-08-31T05:30:45;10.27;;;5.70;;
34725;SDS011;20951;50.818;4.344;2023-08-31T05:33:18;7.65;;;4.95;;
34725;SDS011;20951;50.818;4.344;2023-08-31T05:35:45;12.25;;;5.30;;
34725;SDS011;20951;50.818;4.344;2023-08-31T05:38:11;9.35;;;5.25;;
34725;SDS011;20951;50.818;4.344;2023-08-31T05:40:37;9.77;;;5.30;;
34725;SDS011;20951;50.818;4.344;2023-08-31T05:43:03;10.43;;;5.25;;
34725;SDS011;20951;50.818;4.344;2023-08-31T05:45:33;11.48;;;5.50;;
34725;SDS011;20951;50.818;4.344;2023-08-31T05:47:59;15.75;;;5.65;;
34725;SDS011;20951;50.818;4.344;2023-08-31T05:50:25;11.65;;;5.18;;
34725;SDS011;20951;50.818;4.344;2023-08-31T05:52:52;12.98;;;4.40;;
34725;SDS011;20951;50.818;4.344;2023-08-31T05:55:18;10.68;;;3.78;;
34725;SDS011;20951;50.818;4.344;2023-08-31T05:57:44;13.43;;;4.35;;
34725;SDS011;20951;50.818;4.344;2023-08-31T06:00:09;10.38;;;3.65;;
34725;SDS011;20951;50.818;4.344;2023-08-31T06:02:36;11.98;;;3.60;;
34725;SDS011;20951;50.818;4.344;2023-08-31T06:05:03;11.02;;;3.60;;
34725;SDS011;20951;50.818;4.344;2023-08-31T06:07:30;8.85;;;3.15;;
34725;SDS011;20951;50.818;4.344;2023-08-31T06:09:56;9.27;;;3.47;;
34725;SDS011;20951;50.818;4.344;2023-08-31T06:12:22;9.18;;;3.38;;
34725;SDS011;20951;50.818;4.344;2023-08-31T06:14:48;14.50;;;4.03;;
34725;SDS011;20951;50.818;4.344;2023-08-31T06:17:14;10.85;;;3.40;;
34725;SDS011;20951;50.818;4.344;2023-08-31T06:19:41;14.25;;;4.10;;
34725;SDS011;20951;50.818;4.344;2023-08-31T06:22:08;10.50;;;4.00;;
34725;SDS011;20951;50.818;4.344;2023-08-31T06:24:33;12.25;;;3.60;;
34725;SDS011;20951;50.818;4.344;2023-08-31T06:27:00;11.35;;;4.38;;
34725;SDS011;20951;50.818;4.344;2023-08-31T06:29:26;13.77;;;4.32;;
34725;SDS011;20951;50.818;4.344;2023-08-31T06:31:52;14.75;;;4.22;;
34725;SDS011;20951;50.818;4.344;2023-08-31T06:34:17;11.90;;;4.38;;
34725;SDS011;20951;50.818;4.344;2023-08-31T06:36:43;18.73;;;5.13;;
34725;SDS011;20951;50.818;4.344;2023-08-31T06:39:09;12.35;;;4.38;;
34725;SDS011;20951;50.818;4.344;2023-08-31T06:41:36;11.60;;;4.65;;
34725;SDS011;20951;50.818;4.344;2023-08-31T06:44:02;15.30;;;4.72;;
34725;SDS011;20951;50.818;4.344;2023-08-31T06:46:29;16.35;;;5.30;;
34725;SDS011;20951;50.818;4.344;2023-08-31T06:48:59;12.05;;;4.45;;
34725;SDS011;20951;50.818;4.344;2023-08-31T06:51:25;11.70;;;4.97;;
34725;SDS011;20951;50.818;4.344;2023-08-31T06:53:50;16.05;;;4.78;;
34725;SDS011;20951;50.818;4.344;2023-08-31T06:56:16;20.65;;;5.57;;
34725;SDS011;20951;50.818;4.344;2023-08-31T06:58:43;15.35;;;5.28;;
34725;SDS011;20951;50.818;4.344;2023-08-31T07:01:11;14.00;;;5.00;;
34725;SDS011;20951;50.818;4.344;2023-08-31T07:03:38;15.27;;;5.30;;
34725;SDS011;20951;50.818;4.344;2023-08-31T07:06:03;14.82;;;4.78;;
34725;SDS011;20951;50.818;4.344;2023-08-31T07:08:29;15.10;;;4.75;;
34725;SDS011;20951;50.818;4.344;2023-08-31T07:10:55;12.07;;;4.65;;
34725;SDS011;20951;50.818;4.344;2023-08-31T07:13:21;12.00;;;4.32;;
34725;SDS011;20951;50.818;4.344;2023-08-31T07:15:47;13.13;;;4.68;;
34725;SDS011;20951;50.818;4.344;2023-08-31T07:18:14;18.70;;;5.15;;
34725;SDS011;20951;50.818;4.344;2023-08-31T07:20:39;14.82;;;4.90;;
34725;SDS011;20951;50.818;4.344;2023-08-31T07:23:05;17.65;;;4.82;;
34725;SDS011;20951;50.818;4.344;2023-08-31T07:25:31;14.23;;;4.43;;
34725;SDS011;20951;50.818;4.344;2023-08-31T07:27:57;11.57;;;3.80;;
34725;SDS011;20951;50.818;4.344;2023-08-31T07:30:22;10.63;;;3.80;;
34725;SDS011;20951;50.818;4.344;2023-08-31T07:32:48;12.55;;;3.80;;
34725;SDS011;20951;50.818;4.344;2023-08-31T07:35:14;12.82;;;4.07;;
34725;SDS011;20951;50.818;4.344;2023-08-31T07:37:40;8.98;;;3.53;;
34725;SDS011;20951;50.818;4.344;2023-08-31T07:40:06;11.75;;;3.47;;
34725;SDS011;20951;50.818;4.344;2023-08-31T07:42:35;12.52;;;3.25;;
34725;SDS011;20951;50.818;4.344;2023-08-31T07:45:00;13.85;;;3.55;;
34725;SDS011;20951;50.818;4.344;2023-08-31T07:47:26;13.02;;;3.30;;
34725;SDS011;20951;50.818;4.344;2023-08-31T07:49:52;13.50;;;4.10;;
34725;SDS011;20951;50.818;4.344;2023-08-31T07:52:18;10.70;;;3.58;;
34725;SDS011;20951;50.818;4.344;2023-08-31T07:54:44;11.55;;;3.70;;
34725;SDS011;20951;50.818;4.344;2023-08-31T07:57:10;9.10;;;3.50;;
34725;SDS011;20951;50.818;4.344;2023-08-31T07:59:36;11.48;;;3.38;;
34725;SDS011;20951;50.818;4.344;2023-08-31T08:02:04;12.85;;;3.83;;
34725;SDS011;20951;50.818;4.344;2023-08-31T08:04:30;10.70;;;3.40;;
34725;SDS011;20951;50.818;4.344;2023-08-31T08:06:56;14.05;;;3.47;;
34725;SDS011;20951;50.818;4.344;2023-08-31T08:09:22;11.63;;;3.50;;
34725;SDS011;20951;50.818;4.344;2023-08-31T08:11:48;10.52;;;3.28;;
34725;SDS011;20951;50.818;4.344;2023-08-31T08:14:14;11.35;;;3.35;;
34725;SDS011;20951;50.818;4.344;2023-08-31T08:16:40;9.65;;;3.50;;
34725;SDS011;20951;50.818;4.344;2023-08-31T08:19:07;12.23;;;3.50;;
34725;SDS011;20951;50.818;4.344;2023-08-31T08:21:33;8.52;;;3.28;;
34725;SDS011;20951;50.818;4.344;2023-08-31T08:23:59;10.98;;;3.17;;
34725;SDS011;20951;50.818;4.344;2023-08-31T08:26:25;13.75;;;3.75;;
34725;SDS011;20951;50.818;4.344;2023-08-31T08:28:51;9.55;;;3.15;;
34725;SDS011;20951;50.818;4.344;2023-08-31T08:31:16;8.25;;;3.15;;
34725;SDS011;20951;50.818;4.344;2023-08-31T08:33:42;9.20;;;3.10;;
34725;SDS011;20951;50.818;4.344;2023-08-31T08:36:08;7.97;;;2.92;;
34725;SDS011;20951;50.818;4.344;2023-08-31T08:38:35;9.60;;;3.30;;
34725;SDS011;20951;50.818;4.344;2023-08-31T08:41:04;13.05;;;3.33;;
34725;SDS011;20951;50.818;4.344;2023-08-31T08:43:34;11.10;;;2.80;;
34725;SDS011;20951;50.818;4.344;2023-08-31T08:46:04;9.60;;;3.28;;
34725;SDS011;20951;50.818;4.344;2023-08-31T08:48:32;12.82;;;3.30;;
34725;SDS011;20951;50.818;4.344;2023-08-31T08:51:00;8.30;;;3.15;;
34725;SDS011;20951;50.818;4.344;2023-08-31T08:53:27;12.27;;;3.60;;
34725;SDS011;20951;50.818;4.344;2023-08-31T08:55:53;12.02;;;5.40;;
34725;SDS011;20951;50.818;4.344;2023-08-31T08:58:19;13.80;;;3.13;;
34725;SDS011;20951;50.818;4.344;2023-08-31T09:00:45;10.07;;;2.92;;
34725;SDS011;20951;50.818;4.344;2023-08-31T09:03:12;9.25;;;2.90;;
34725;SDS011;20951;50.818;4.344;2023-08-31T09:05:38;10.90;;;3.30;;
34725;SDS011;20951;50.818;4.344;2023-08-31T09:08:05;8.98;;;3.33;;
34725;SDS011;20951;50.818;4.344;2023-08-31T09:10:41;10.30;;;3.20;;
34725;SDS011;20951;50.818;4.344;2023-08-31T09:13:14;10.30;;;2.72;;
34725;SDS011;20951;50.818;4.344;2023-08-31T09:15:41;10.68;;;3.58;;
34725;SDS011;20951;50.818;4.344;2023-08-31T09:18:14;13.68;;;3.25;;
34725;SDS011;20951;50.818;4.344;2023-08-31T09:20:53;7.88;;;3.13;;
34725;SDS011;20951;50.818;4.344;2023-08-31T09:23:21;7.88;;;3.00;;
34725;SDS011;20951;50.818;4.344;2023-08-31T09:25:48;8.25;;;3.15;;
34725;SDS011;20951;50.818;4.344;2023-08-31T09:28:15;11.85;;;3.10;;
34725;SDS011;20951;50.818;4.344;2023-08-31T09:30:45;7.15;;;2.80;;
34725;SDS011;20951;50.818;4.344;2023-08-31T09:33:13;7.60;;;2.70;;
34725;SDS011;20951;50.818;4.344;2023-08-31T09:35:49;9.57;;;3.17;;
34725;SDS011;20951;50.818;4.344;2023-08-31T09:38:16;9.30;;;3.47;;
34725;SDS011;20951;50.818;4.344;2023-08-31T09:40:42;8.82;;;3.10;;
34725;SDS011;20951;50.818;4.344;2023-08-31T09:43:08;7.68;;;2.83;;
34725;SDS011;20951;50.818;4.344;2023-08-31T09:45:34;9.68;;;3.20;;
34725;SDS011;20951;50.818;4.344;2023-08-31T09:48:02;8.25;;;3.22;;
34725;SDS011;20951;50.818;4.344;2023-08-31T09:50:31;9.48;;;3.30;;
34725;SDS011;20951;50.818;4.344;2023-08-31T09:53:01;8.77;;;2.83;;
34725;SDS011;20951;50.818;4.344;2023-08-31T09:55:29;8.05;;;3.03;;
34725;SDS011;20951;50.818;4.344;2023-08-31T09:57:56;9.18;;;3.38;;
34725;SDS011;20951;50.818;4.344;2023-08-31T10:00:26;8.45;;;2.72;;
34725;SDS011;20951;50.818;4.344;2023-08-31T10:02:58;9.43;;;2.95;;
34725;SDS011;20951;50.818;4.344;2023-08-31T10:05:27;9.90;;;3.60;;
34725;SDS011;20951;50.818;4.344;2023-08-31T10:07:53;11.73;;;6.57;;
34725;SDS011;20951;50.818;4.344;2023-08-31T10:10:19;9.00;;;3.15;;
34725;SDS011;20951;50.818;4.344;2023-08-31T10:12:50;10.13;;;2.90;;
34725;SDS011;20951;50.818;4.344;2023-08-31T10:15:18;8.40;;;2.53;;
34725;SDS011;20951;50.818;4.344;2023-08-31T10:17:47;10.43;;;2.90;;
34725;SDS011;20951;50.818;4.344;2023-08-31T10:20:15;12.85;;;3.10;;
34725;SDS011;20951;50.818;4.344;2023-08-31T10:22:42;9.45;;;2.78;;
34725;SDS011;20951;50.818;4.344;2023-08-31T10:25:08;9.55;;;2.53;;
34725;SDS011;20951;50.818;4.344;2023-08-31T10:27:37;10.23;;;2.70;;
34725;SDS011;20951;50.818;4.344;2023-08-31T10:38:16;7.13;;;2.70;;
34725;SDS011;20951;50.818;4.344;2023-08-31T10:41:01;9.10;;;2.75;;
34725;SDS011;20951;50.818;4.344;2023-08-31T10:43:28;6.93;;;2.60;;
34725;SDS011;20951;50.818;4.344;2023-08-31T10:46:15;11.35;;;2.88;;
34725;SDS011;20951;50.818;4.344;2023-08-31T10:48:59;7.28;;;2.70;;
34725;SDS011;20951;50.818;4.344;2023-08-31T10:51:29;9.02;;;2.90;;
34725;SDS011;20951;50.818;4.344;2023-08-31T10:57:10;11.70;;;2.70;;
34725;SDS011;20951;50.818;4.344;2023-08-31T11:05:06;7.80;;;2.25;;
34725;SDS011;20951;50.818;4.344;2023-08-31T11:07:40;11.23;;;2.53;;
34725;SDS011;20951;50.818;4.344;2023-08-31T11:10:13;7.95;;;2.47;;
34725;SDS011;20951;50.818;4.344;2023-08-31T11:12:40;7.07;;;2.53;;
34725;SDS011;20951;50.818;4.344;2023-08-31T11:15:07;9.70;;;2.22;;
34725;SDS011;20951;50.818;4.344;2023-08-31T11:17:36;8.00;;;1.90;;
34725;SDS011;20951;50.818;4.344;2023-08-31T11:20:05;8.40;;;2.30;;
34725;SDS011;20951;50.818;4.344;2023-08-31T11:22:31;9.30;;;2.10;;
34725;SDS011;20951;50.818;4.344;2023-08-31T11:25:00;7.22;;;2.30;;
34725;SDS011;20951;50.818;4.344;2023-08-31T11:27:26;8.73;;;2.05;;
34725;SDS011;20951;50.818;4.344;2023-08-31T11:29:52;7.05;;;1.70;;
34725;SDS011;20951;50.818;4.344;2023-08-31T11:32:18;6.82;;;2.10;;
34725;SDS011;20951;50.818;4.344;2023-08-31T11:34:44;8.40;;;1.95;;
34725;SDS011;20951;50.818;4.344;2023-08-31T11:37:11;7.88;;;1.80;;
34725;SDS011;20951;50.818;4.344;2023-08-31T11:39:42;6.65;;;1.63;;
34725;SDS011;20951;50.818;4.344;2023-08-31T11:42:15;7.90;;;1.67;;
34725;SDS011;20951;50.818;4.344;2023-08-31T11:44:41;7.25;;;1.80;;
34725;SDS011;20951;50.818;4.344;2023-08-31T11:47:07;7.32;;;1.80;;
34725;SDS011;20951;50.818;4.344;2023-08-31T11:49:33;7.22;;;2.00;;
34725;SDS011;20951;50.818;4.344;2023-08-31T11:51:59;9.27;;;2.20;;
34725;SDS011;20951;50.818;4.344;2023-08-31T11:54:25;10.65;;;2.10;;
34725;SDS011;20951;50.818;4.344;2023-08-31T11:56:51;6.18;;;2.13;;
34725;SDS011;20951;50.818;4.344;2023-08-31T11:59:18;6.32;;;2.13;;
34725;SDS011;20951;50.818;4.344;2023-08-31T12:01:46;7.47;;;2.30;;
34725;SDS011;20951;50.818;4.344;2023-08-31T12:04:16;9.82;;;2.40;;
34725;SDS011;20951;50.818;4.344;2023-08-31T12:06:48;7.88;;;2.40;;
34725;SDS011;20951;50.818;4.344;2023-08-31T12:09:15;7.03;;;2.00;;
34725;SDS011;20951;50.818;4.344;2023-08-31T12:11:42;10.13;;;2.50;;
34725;SDS011;20951;50.818;4.344;2023-08-31T12:14:18;9.90;;;2.40;;
34725;SDS011;20951;50.818;4.344;2023-08-31T12:16:45;8.65;;;2.00;;
34725;SDS011;20951;50.818;4.344;2023-08-31T12:19:11;8.75;;;2.30;;
34725;SDS011;20951;50.818;4.344;2023-08-31T12:21:37;8.23;;;2.40;;
34725;SDS011;20951;50.818;4.344;2023-08-31T12:24:04;8.63;;;2.40;;
34725;SDS011;20951;50.818;4.344;2023-08-31T12:26:32;7.88;;;2.20;;
34725;SDS011;20951;50.818;4.344;2023-08-31T12:28:57;7.25;;;2.10;;
34725;SDS011;20951;50.818;4.344;2023-08-31T12:31:24;6.65;;;1.92;;
34725;SDS011;20951;50.818;4.344;2023-08-31T12:33:53;5.85;;;2.13;;
34725;SDS011;20951;50.818;4.344;2023-08-31T12:36:18;7.05;;;1.98;;
34725;SDS011;20951;50.818;4.344;2023-08-31T12:38:44;8.05;;;2.28;;
34725;SDS011;20951;50.818;4.344;2023-08-31T12:41:11;6.25;;;2.10;;
34725;SDS011;20951;50.818;4.344;2023-08-31T12:43:37;8.43;;;2.20;;
34725;SDS011;20951;50.818;4.344;2023-08-31T12:46:03;6.95;;;1.73;;
34725;SDS011;20951;50.818;4.344;2023-08-31T12:48:34;6.78;;;1.90;;
34725;SDS011;20951;50.818;4.344;2023-08-31T12:51:01;6.32;;;1.85;;
34725;SDS011;20951;50.818;4.344;2023-08-31T12:53:27;7.40;;;2.08;;
34725;SDS011;20951;50.818;4.344;2023-08-31T12:55:53;14.73;;;2.58;;
34725;SDS011;20951;50.818;4.344;2023-08-31T12:58:19;8.77;;;2.05;;
34725;SDS011;20951;50.818;4.344;2023-08-31T13:00:47;10.27;;;2.22;;
34725;SDS011;20951;50.818;4.344;2023-08-31T13:03:14;11.35;;;2.38;;
34725;SDS011;20951;50.818;4.344;2023-08-31T13:05:43;14.95;;;2.47;;
34725;SDS011;20951;50.818;4.344;2023-08-31T13:08:10;13.98;;;2.50;;
34725;SDS011;20951;50.818;4.344;2023-08-31T13:10:36;44.08;;;6.22;;
34725;SDS011;20951;50.818;4.344;2023-08-31T13:13:01;77.32;;;9.50;;
34725;SDS011;20951;50.818;4.344;2023-08-31T13:15:27;14.85;;;2.53;;
34725;SDS011;20951;50.818;4.344;2023-08-31T13:17:54;11.60;;;2.25;;
34725;SDS011;20951;50.818;4.344;2023-08-31T13:20:20;18.52;;;2.90;;
34725;SDS011;20951;50.818;4.344;2023-08-31T13:22:47;14.88;;;2.97;;
34725;SDS011;20951;50.818;4.344;2023-08-31T13:25:12;8.73;;;2.10;;
34725;SDS011;20951;50.818;4.344;2023-08-31T13:27:38;7.57;;;1.90;;
34725;SDS011;20951;50.818;4.344;2023-08-31T13:30:06;22.25;;;3.10;;
34725;SDS011;20951;50.818;4.344;2023-08-31T13:35:04;34.70;;;5.13;;
34725;SDS011;20951;50.818;4.344;2023-08-31T13:37:34;17.60;;;3.00;;
34725;SDS011;20951;50.818;4.344;2023-08-31T13:39:59;8.70;;;2.30;;
34725;SDS011;20951;50.818;4.344;2023-08-31T13:42:26;8.05;;;2.28;;
34725;SDS011;20951;50.818;4.344;2023-08-31T13:45:03;15.20;;;3.35;;
34725;SDS011;20951;50.818;4.344;2023-08-31T13:47:33;7.63;;;2.38;;
34725;SDS011;20951;50.818;4.344;2023-08-31T13:49:59;7.43;;;2.58;;
34725;SDS011;20951;50.818;4.344;2023-08-31T13:52:25;16.95;;;2.95;;
34725;SDS011;20951;50.818;4.344;2023-08-31T13:54:51;10.05;;;2.50;;
34725;SDS011;20951;50.818;4.344;2023-08-31T13:57:17;9.70;;;2.15;;
34725;SDS011;20951;50.818;4.344;2023-08-31T13:59:44;7.90;;;2.35;;
34725;SDS011;20951;50.818;4.344;2023-08-31T14:02:10;13.57;;;2.75;;
34725;SDS011;20951;50.818;4.344;2023-08-31T14:04:36;8.63;;;2.30;;
34725;SDS011;20951;50.818;4.344;2023-08-31T14:07:01;16.45;;;3.63;;
34725;SDS011;20951;50.818;4.344;2023-08-31T14:09:30;17.65;;;3.28;;
34725;SDS011;20951;50.818;4.344;2023-08-31T14:11:56;9.52;;;2.60;;
34725;SDS011;20951;50.818;4.344;2023-08-31T14:14:22;13.55;;;2.83;;
34725;SDS011;20951;50.818;4.344;2023-08-31T14:16:49;9.20;;;2.63;;
34725;SDS011;20951;50.818;4.344;2023-08-31T14:19:15;10.30;;;2.78;;
34725;SDS011;20951;50.818;4.344;2023-08-31T14:21:45;8.25;;;2.58;;
34725;SDS011;20951;50.818;4.344;2023-08-31T14:24:12;10.93;;;3.00;;
34725;SDS011;20951;50.818;4.344;2023-08-31T14:26:38;8.18;;;2.60;;
34725;SDS011;20951;50.818;4.344;2023-08-31T14:29:04;11.38;;;2.90;;
34725;SDS011;20951;50.818;4.344;2023-08-31T14:31:30;8.23;;;2.95;;
34725;SDS011;20951;50.818;4.344;2023-08-31T14:33:56;9.07;;;2.63;;
34725;SDS011;20951;50.818;4.344;2023-08-31T14:36:21;7.13;;;2.55;;
34725;SDS011;20951;50.818;4.344;2023-08-31T14:38:47;11.40;;;2.78;;
34725;SDS011;20951;50.818;4.344;2023-08-31T14:41:13;11.77;;;3.15;;
34725;SDS011;20951;50.818;4.344;2023-08-31T14:43:40;9.43;;;2.67;;
34725;SDS011;20951;50.818;4.344;2023-08-31T14:46:06;11.85;;;2.75;;
34725;SDS011;20951;50.818;4.344;2023-08-31T14:48:32;7.88;;;2.88;;
34725;SDS011;20951;50.818;4.344;2023-08-31T14:50:58;11.43;;;3.00;;
34725;SDS011;20951;50.818;4.344;2023-08-31T14:53:25;11.02;;;2.95;;
34725;SDS011;20951;50.818;4.344;2023-08-31T14:55:51;11.60;;;3.28;;
34725;SDS011;20951;50.818;4.344;2023-08-31T14:58:17;8.43;;;3.33;;
34725;SDS011;20951;50.818;4.344;2023-08-31T15:00:43;12.02;;;3.47;;
34725;SDS011;20951;50.818;4.344;2023-08-31T15:03:12;10.88;;;3.03;;
34725;SDS011;20951;50.818;4.344;2023-08-31T15:05:38;10.95;;;3.15;;
34725;SDS011;20951;50.818;4.344;2023-08-31T15:08:07;11.05;;;3.00;;
34725;SDS011;20951;50.818;4.344;2023-08-31T15:10:33;9.77;;;3.33;;